sensor_id;sensor_type;location;lat;lon;timestamp;temperature;humidity
64874;HTU21D;51367;45.204;38.576;2023-06-14T00:00:58;18.79;83.23
64874;HTU21D;51367;45.204;38.576;2023-06-14T00:03:24;18.81;83.21
64874;HTU21D;51367;45.204;38.576;2023-06-14T00:05:51;18.81;83.21
64874;HTU21D;51367;45.204;38.576;2023-06-14T00:08:17;18.82;83.23
64874;HTU21D;51367;45.204;38.576;2023-06-14T00:10:44;18.83;83.21
64874;HTU21D;51367;45.204;38.576;2023-06-14T00:13:11;18.84;83.21
64874;HTU21D;51367;45.204;38.576;2023-06-14T00:15:37;18.84;83.21
64874;HTU21D;51367;45.204;38.576;2023-06-14T00:18:04;18.84;83.22
64874;HTU21D;51367;45.204;38.576;2023-06-14T00:20:32;18.84;83.21
64874;HTU21D;51367;45.204;38.576;2023-06-14T00:23:00;18.84;83.22
64874;HTU21D;51367;45.204;38.576;2023-06-14T00:25:26;18.85;83.22
64874;HTU21D;51367;45.204;38.576;2023-06-14T00:27:53;18.85;83.21
64874;HTU21D;51367;45.204;38.576;2023-06-14T00:30:19;18.87;83.22
64874;HTU21D;51367;45.204;38.576;2023-06-14T00:32:46;18.87;83.23
64874;HTU21D;51367;45.204;38.576;2023-06-14T00:35:12;18.86;83.24
64874;HTU21D;51367;45.204;38.576;2023-06-14T00:37:39;18.86;83.26
64874;HTU21D;51367;45.204;38.576;2023-06-14T00:40:06;18.87;83.26
64874;HTU21D;51367;45.204;38.576;2023-06-14T00:42:32;18.87;83.28
64874;HTU21D;51367;45.204;38.576;2023-06-14T00:44:59;18.86;83.27
64874;HTU21D;51367;45.204;38.576;2023-06-14T00:47:26;18.86;83.29
64874;HTU21D;51367;45.204;38.576;2023-06-14T00:49:53;18.85;83.32
64874;HTU21D;51367;45.204;38.576;2023-06-14T00:52:22;18.83;83.37
64874;HTU21D;51367;45.204;38.576;2023-06-14T00:54:50;18.82;83.41
64874;HTU21D;51367;45.204;38.576;2023-06-14T00:57:16;18.81;83.43
64874;HTU21D;51367;45.204;38.576;2023-06-14T00:59:43;18.81;83.44
64874;HTU21D;51367;45.204;38.576;2023-06-14T01:02:10;18.81;83.45
64874;HTU21D;51367;45.204;38.576;2023-06-14T01:04:37;18.81;83.45
64874;HTU21D;51367;45.204;38.576;2023-06-14T01:10:25;18.78;83.46
64874;HTU21D;51367;45.204;38.576;2023-06-14T01:12:58;18.73;83.59
64874;HTU21D;51367;45.204;38.576;2023-06-14T01:15:30;18.71;83.55
64874;HTU21D;51367;45.204;38.576;2023-06-14T01:17:56;18.70;83.57
64874;HTU21D;51367;45.204;38.576;2023-06-14T01:20:33;18.66;83.58
64874;HTU21D;51367;45.204;38.576;2023-06-14T01:23:03;18.63;83.65
64874;HTU21D;51367;45.204;38.576;2023-06-14T01:25:30;18.63;83.70
64874;HTU21D;51367;45.204;38.576;2023-06-14T01:27:59;18.62;83.71
64874;HTU21D;51367;45.204;38.576;2023-06-14T01:30:26;18.58;83.70
64874;HTU21D;51367;45.204;38.576;2023-06-14T01:32:54;18.57;83.71
64874;HTU21D;51367;45.204;38.576;2023-06-14T01:35:21;18.57;83.72
64874;HTU21D;51367;45.204;38.576;2023-06-14T01:37:48;18.56;83.74
64874;HTU21D;51367;45.204;38.576;2023-06-14T01:40:15;18.57;83.75
64874;HTU21D;51367;45.204;38.576;2023-06-14T01:42:42;18.56;83.75
64874;HTU21D;51367;45.204;38.576;2023-06-14T01:45:10;18.57;83.75
64874;HTU21D;51367;45.204;38.576;2023-06-14T01:47:37;18.56;83.76
64874;HTU21D;51367;45.204;38.576;2023-06-14T01:50:04;18.56;83.78
64874;HTU21D;51367;45.204;38.576;2023-06-14T01:52:30;18.55;83.81
64874;HTU21D;51367;45.204;38.576;2023-06-14T01:54:56;18.55;83.81
64874;HTU21D;51367;45.204;38.576;2023-06-14T01:57:24;18.56;83.83
64874;HTU21D;51367;45.204;38.576;2023-06-14T01:59:52;18.57;83.81
64874;HTU21D;51367;45.204;38.576;2023-06-14T02:02:18;18.57;83.83
64874;HTU21D;51367;45.204;38.576;2023-06-14T02:04:44;18.55;83.86
64874;HTU21D;51367;45.204;38.576;2023-06-14T02:07:12;18.54;83.87
64874;HTU21D;51367;45.204;38.576;2023-06-14T02:09:41;18.55;83.90
64874;HTU21D;51367;45.204;38.576;2023-06-14T02:12:08;18.55;83.90
64874;HTU21D;51367;45.204;38.576;2023-06-14T02:14:34;18.58;83.91
64874;HTU21D;51367;45.204;38.576;2023-06-14T02:17:00;18.57;83.90
64874;HTU21D;51367;45.204;38.576;2023-06-14T02:19:26;18.58;83.90
64874;HTU21D;51367;45.204;38.576;2023-06-14T02:21:52;18.58;83.94
64874;HTU21D;51367;45.204;38.576;2023-06-14T02:24:18;18.61;83.96
64874;HTU21D;51367;45.204;38.576;2023-06-14T02:26:44;18.62;83.98
64874;HTU21D;51367;45.204;38.576;2023-06-14T02:29:14;18.62;83.97
64874;HTU21D;51367;45.204;38.576;2023-06-14T02:31:41;18.64;83.96
64874;HTU21D;51367;45.204;38.576;2023-06-14T02:34:07;18.67;83.96
64874;HTU21D;51367;45.204;38.576;2023-06-14T02:36:36;18.68;83.94
64874;HTU21D;51367;45.204;38.576;2023-06-14T02:39:11;18.70;83.95
64874;HTU21D;51367;45.204;38.576;2023-06-14T02:41:37;18.72;83.93
64874;HTU21D;51367;45.204;38.576;2023-06-14T02:44:03;18.76;83.94
64874;HTU21D;51367;45.204;38.576;2023-06-14T02:46:29;18.78;83.95
64874;HTU21D;51367;45.204;38.576;2023-06-14T02:48:55;18.80;83.96
64874;HTU21D;51367;45.204;38.576;2023-06-14T02:51:21;18.83;83.97
64874;HTU21D;51367;45.204;38.576;2023-06-14T02:53:47;18.87;83.97
64874;HTU21D;51367;45.204;38.576;2023-06-14T02:56:13;18.93;83.97
64874;HTU21D;51367;45.204;38.576;2023-06-14T02:58:40;18.96;83.97
64874;HTU21D;51367;45.204;38.576;2023-06-14T03:01:07;19.03;83.94
64874;HTU21D;51367;45.204;38.576;2023-06-14T03:03:34;19.08;83.90
64874;HTU21D;51367;45.204;38.576;2023-06-14T03:06:00;19.14;83.89
64874;HTU21D;51367;45.204;38.576;2023-06-14T03:08:32;19.21;83.84
64874;HTU21D;51367;45.204;38.576;2023-06-14T03:11:07;19.27;83.81
64874;HTU21D;51367;45.204;38.576;2023-06-14T03:13:35;19.36;83.78
64874;HTU21D;51367;45.204;38.576;2023-06-14T03:16:03;19.44;83.74
64874;HTU21D;51367;45.204;38.576;2023-06-14T03:18:32;19.55;83.68
64874;HTU21D;51367;45.204;38.576;2023-06-14T03:21:02;19.63;83.60
64874;HTU21D;51367;45.204;38.576;2023-06-14T03:23:30;19.71;83.54
64874;HTU21D;51367;45.204;38.576;2023-06-14T03:25:57;19.76;83.47
64874;HTU21D;51367;45.204;38.576;2023-06-14T03:28:23;19.83;83.42
64874;HTU21D;51367;45.204;38.576;2023-06-14T03:30:51;19.87;83.39
64874;HTU21D;51367;45.204;38.576;2023-06-14T03:33:17;19.91;83.36
64874;HTU21D;51367;45.204;38.576;2023-06-14T03:35:44;19.97;83.33
64874;HTU21D;51367;45.204;38.576;2023-06-14T03:38:10;20.00;83.29
64874;HTU21D;51367;45.204;38.576;2023-06-14T03:40:36;20.07;83.26
64874;HTU21D;51367;45.204;38.576;2023-06-14T03:43:05;20.12;83.20
64874;HTU21D;51367;45.204;38.576;2023-06-14T03:45:31;20.19;83.16
64874;HTU21D;51367;45.204;38.576;2023-06-14T03:47:58;20.24;83.10
64874;HTU21D;51367;45.204;38.576;2023-06-14T03:50:26;20.30;83.06
64874;HTU21D;51367;45.204;38.576;2023-06-14T03:52:52;20.35;83.01
64874;HTU21D;51367;45.204;38.576;2023-06-14T03:55:20;20.40;82.97
64874;HTU21D;51367;45.204;38.576;2023-06-14T03:57:46;20.47;82.92
64874;HTU21D;51367;45.204;38.576;2023-06-14T04:00:16;20.55;82.84
64874;HTU21D;51367;45.204;38.576;2023-06-14T04:02:43;20.61;82.78
64874;HTU21D;51367;45.204;38.576;2023-06-14T04:05:10;20.66;82.74
64874;HTU21D;51367;45.204;38.576;2023-06-14T04:07:39;20.73;82.68
64874;HTU21D;51367;45.204;38.576;2023-06-14T04:10:12;20.81;82.58
64874;HTU21D;51367;45.204;38.576;2023-06-14T04:12:38;20.88;82.53
64874;HTU21D;51367;45.204;38.576;2023-06-14T04:15:04;20.94;82.46
64874;HTU21D;51367;45.204;38.576;2023-06-14T04:17:35;21.03;82.38
64874;HTU21D;51367;45.204;38.576;2023-06-14T04:20:03;21.11;82.28
64874;HTU21D;51367;45.204;38.576;2023-06-14T04:22:31;21.20;82.16
64874;HTU21D;51367;45.204;38.576;2023-06-14T04:24:58;21.28;82.04
64874;HTU21D;51367;45.204;38.576;2023-06-14T04:27:26;21.35;81.97
64874;HTU21D;51367;45.204;38.576;2023-06-14T04:29:54;21.42;81.91
64874;HTU21D;51367;45.204;38.576;2023-06-14T04:32:28;21.44;81.81
64874;HTU21D;51367;45.204;38.576;2023-06-14T04:35:06;21.44;81.81
64874;HTU21D;51367;45.204;38.576;2023-06-14T04:37:34;21.45;81.89
64874;HTU21D;51367;45.204;38.576;2023-06-14T04:40:00;21.43;81.84
64874;HTU21D;51367;45.204;38.576;2023-06-14T04:42:26;21.43;82.00
64874;HTU21D;51367;45.204;38.576;2023-06-14T04:44:57;21.48;82.08
64874;HTU21D;51367;45.204;38.576;2023-06-14T04:47:23;21.59;82.06
64874;HTU21D;51367;45.204;38.576;2023-06-14T04:49:59;21.70;81.91
64874;HTU21D;51367;45.204;38.576;2023-06-14T04:52:29;21.79;81.71
64874;HTU21D;51367;45.204;38.576;2023-06-14T04:54:56;21.83;81.57
64874;HTU21D;51367;45.204;38.576;2023-06-14T04:57:23;21.88;81.46
64874;HTU21D;51367;45.204;38.576;2023-06-14T04:59:54;21.91;81.40
64874;HTU21D;51367;45.204;38.576;2023-06-14T05:02:22;21.98;81.39
64874;HTU21D;51367;45.204;38.576;2023-06-14T05:04:49;22.03;81.27
64874;HTU21D;51367;45.204;38.576;2023-06-14T05:07:16;22.07;81.25
64874;HTU21D;51367;45.204;38.576;2023-06-14T05:09:44;22.11;81.15
64874;HTU21D;51367;45.204;38.576;2023-06-14T05:12:11;22.11;81.05
64874;HTU21D;51367;45.204;38.576;2023-06-14T05:14:37;22.10;80.96
64874;HTU21D;51367;45.204;38.576;2023-06-14T05:17:05;22.05;80.99
64874;HTU21D;51367;45.204;38.576;2023-06-14T05:19:31;22.04;81.07
64874;HTU21D;51367;45.204;38.576;2023-06-14T05:22:15;22.05;81.09
64874;HTU21D;51367;45.204;38.576;2023-06-14T05:24:41;22.06;81.05
64874;HTU21D;51367;45.204;38.576;2023-06-14T05:27:07;22.09;81.04
64874;HTU21D;51367;45.204;38.576;2023-06-14T05:29:33;22.09;80.95
64874;HTU21D;51367;45.204;38.576;2023-06-14T05:31:59;22.07;81.00
64874;HTU21D;51367;45.204;38.576;2023-06-14T05:34:44;22.09;81.09
64874;HTU21D;51367;45.204;38.576;2023-06-14T05:37:28;22.22;81.09
64874;HTU21D;51367;45.204;38.576;2023-06-14T05:39:54;22.39;80.94
64874;HTU21D;51367;45.204;38.576;2023-06-14T05:42:20;22.57;80.80
64874;HTU21D;51367;45.204;38.576;2023-06-14T05:44:46;22.77;80.56
64874;HTU21D;51367;45.204;38.576;2023-06-14T05:50:15;23.05;79.88
64874;HTU21D;51367;45.204;38.576;2023-06-14T05:52:41;23.18;79.98
64874;HTU21D;51367;45.204;38.576;2023-06-14T05:55:07;23.35;79.74
64874;HTU21D;51367;45.204;38.576;2023-06-14T05:57:33;23.47;79.52
64874;HTU21D;51367;45.204;38.576;2023-06-14T05:59:59;23.57;79.43
64874;HTU21D;51367;45.204;38.576;2023-06-14T06:02:25;23.61;79.12
64874;HTU21D;51367;45.204;38.576;2023-06-14T06:04:50;23.62;79.08
64874;HTU21D;51367;45.204;38.576;2023-06-14T06:07:16;23.70;78.94
64874;HTU21D;51367;45.204;38.576;2023-06-14T06:09:42;23.85;78.90
64874;HTU21D;51367;45.204;38.576;2023-06-14T06:12:09;24.01;78.55
64874;HTU21D;51367;45.204;38.576;2023-06-14T06:14:35;24.13;78.29
64874;HTU21D;51367;45.204;38.576;2023-06-14T06:17:01;24.23;78.05
64874;HTU21D;51367;45.204;38.576;2023-06-14T06:19:27;24.30;77.98
64874;HTU21D;51367;45.204;38.576;2023-06-14T06:21:53;24.41;77.83
64874;HTU21D;51367;45.204;38.576;2023-06-14T06:24:19;24.51;77.59
64874;HTU21D;51367;45.204;38.576;2023-06-14T06:26:45;24.63;77.21
64874;HTU21D;51367;45.204;38.576;2023-06-14T06:29:10;24.70;76.94
64874;HTU21D;51367;45.204;38.576;2023-06-14T06:31:37;24.68;76.86
64874;HTU21D;51367;45.204;38.576;2023-06-14T06:34:03;24.65;76.94
64874;HTU21D;51367;45.204;38.576;2023-06-14T06:36:47;24.62;76.83
64874;HTU21D;51367;45.204;38.576;2023-06-14T06:39:13;24.62;76.82
64874;HTU21D;51367;45.204;38.576;2023-06-14T06:41:40;24.64;76.73
64874;HTU21D;51367;45.204;38.576;2023-06-14T06:44:07;24.63;76.52
64874;HTU21D;51367;45.204;38.576;2023-06-14T06:46:33;24.63;76.51
64874;HTU21D;51367;45.204;38.576;2023-06-14T06:49:00;24.73;76.55
64874;HTU21D;51367;45.204;38.576;2023-06-14T06:51:26;24.89;76.41
64874;HTU21D;51367;45.204;38.576;2023-06-14T06:53:53;25.05;76.12
64874;HTU21D;51367;45.204;38.576;2023-06-14T06:56:20;25.12;75.89
64874;HTU21D;51367;45.204;38.576;2023-06-14T06:58:51;25.15;75.79
64874;HTU21D;51367;45.204;38.576;2023-06-14T07:01:17;25.25;75.78
64874;HTU21D;51367;45.204;38.576;2023-06-14T07:06:30;25.57;75.46
64874;HTU21D;51367;45.204;38.576;2023-06-14T07:08:55;25.75;75.39
64874;HTU21D;51367;45.204;38.576;2023-06-14T07:11:27;25.99;74.86
64874;HTU21D;51367;45.204;38.576;2023-06-14T07:13:53;26.24;74.11
64874;HTU21D;51367;45.204;38.576;2023-06-14T07:16:19;26.38;73.24
64874;HTU21D;51367;45.204;38.576;2023-06-14T07:18:45;26.54;73.06
64874;HTU21D;51367;45.204;38.576;2023-06-14T07:21:11;26.69;72.57
64874;HTU21D;51367;45.204;38.576;2023-06-14T07:23:36;26.62;71.78
64874;HTU21D;51367;45.204;38.576;2023-06-14T07:26:02;26.42;72.32
64874;HTU21D;51367;45.204;38.576;2023-06-14T07:28:28;26.37;72.32
64874;HTU21D;51367;45.204;38.576;2023-06-14T07:30:54;26.35;72.39
64874;HTU21D;51367;45.204;38.576;2023-06-14T07:33:20;26.35;72.38
64874;HTU21D;51367;45.204;38.576;2023-06-14T07:35:46;26.48;72.45
64874;HTU21D;51367;45.204;38.576;2023-06-14T07:38:13;26.68;72.34
64874;HTU21D;51367;45.204;38.576;2023-06-14T07:40:39;26.79;71.74
64874;HTU21D;51367;45.204;38.576;2023-06-14T07:43:05;26.87;71.22
64874;HTU21D;51367;45.204;38.576;2023-06-14T07:45:31;26.81;70.70
64874;HTU21D;51367;45.204;38.576;2023-06-14T07:47:57;26.72;70.61
64874;HTU21D;51367;45.204;38.576;2023-06-14T07:50:23;26.56;71.26
64874;HTU21D;51367;45.204;38.576;2023-06-14T07:52:49;26.52;71.32
64874;HTU21D;51367;45.204;38.576;2023-06-14T07:55:15;26.55;71.17
64874;HTU21D;51367;45.204;38.576;2023-06-14T07:57:40;26.60;71.19
64874;HTU21D;51367;45.204;38.576;2023-06-14T08:00:08;26.66;71.16
64874;HTU21D;51367;45.204;38.576;2023-06-14T08:02:43;26.71;70.96
64874;HTU21D;51367;45.204;38.576;2023-06-14T08:05:10;26.82;70.94
64874;HTU21D;51367;45.204;38.576;2023-06-14T08:07:37;26.89;70.66
64874;HTU21D;51367;45.204;38.576;2023-06-14T08:10:07;26.90;70.45
64874;HTU21D;51367;45.204;38.576;2023-06-14T08:12:33;26.94;70.21
64874;HTU21D;51367;45.204;38.576;2023-06-14T08:15:00;26.96;70.10
64874;HTU21D;51367;45.204;38.576;2023-06-14T08:17:26;27.04;70.13
64874;HTU21D;51367;45.204;38.576;2023-06-14T08:19:52;27.14;69.85
64874;HTU21D;51367;45.204;38.576;2023-06-14T08:22:23;27.20;69.45
64874;HTU21D;51367;45.204;38.576;2023-06-14T08:24:50;27.26;69.45
64874;HTU21D;51367;45.204;38.576;2023-06-14T08:27:16;27.34;69.29
64874;HTU21D;51367;45.204;38.576;2023-06-14T08:29:43;27.43;69.24
64874;HTU21D;51367;45.204;38.576;2023-06-14T08:32:09;27.50;68.75
64874;HTU21D;51367;45.204;38.576;2023-06-14T08:34:35;27.52;68.59
64874;HTU21D;51367;45.204;38.576;2023-06-14T08:37:01;27.56;68.35
64874;HTU21D;51367;45.204;38.576;2023-06-14T08:39:27;27.65;68.32
64874;HTU21D;51367;45.204;38.576;2023-06-14T08:41:54;27.57;68.52
64874;HTU21D;51367;45.204;38.576;2023-06-14T08:44:22;27.58;68.44
64874;HTU21D;51367;45.204;38.576;2023-06-14T08:46:48;27.70;68.47
64874;HTU21D;51367;45.204;38.576;2023-06-14T08:49:16;27.74;68.16
64874;HTU21D;51367;45.204;38.576;2023-06-14T08:51:43;27.69;68.31
64874;HTU21D;51367;45.204;38.576;2023-06-14T08:54:11;27.72;68.38
64874;HTU21D;51367;45.204;38.576;2023-06-14T08:56:38;27.83;68.46
64874;HTU21D;51367;45.204;38.576;2023-06-14T08:59:04;28.02;67.84
64874;HTU21D;51367;45.204;38.576;2023-06-14T09:01:36;28.23;67.39
64874;HTU21D;51367;45.204;38.576;2023-06-14T09:04:03;28.38;66.57
64874;HTU21D;51367;45.204;38.576;2023-06-14T09:06:31;28.39;66.44
64874;HTU21D;51367;45.204;38.576;2023-06-14T09:08:58;28.45;66.28
64874;HTU21D;51367;45.204;38.576;2023-06-14T09:11:24;28.50;65.46
64874;HTU21D;51367;45.204;38.576;2023-06-14T09:13:52;28.60;65.37
64874;HTU21D;51367;45.204;38.576;2023-06-14T09:16:18;28.70;64.88
64874;HTU21D;51367;45.204;38.576;2023-06-14T09:18:45;28.82;64.79
64874;HTU21D;51367;45.204;38.576;2023-06-14T09:21:17;28.99;64.53
64874;HTU21D;51367;45.204;38.576;2023-06-14T09:23:45;29.15;64.53
64874;HTU21D;51367;45.204;38.576;2023-06-14T09:26:16;29.27;64.04
64874;HTU21D;51367;45.204;38.576;2023-06-14T09:28:43;29.32;63.77
64874;HTU21D;51367;45.204;38.576;2023-06-14T09:31:17;29.38;63.85
64874;HTU21D;51367;45.204;38.576;2023-06-14T09:33:48;29.53;63.89
64874;HTU21D;51367;45.204;38.576;2023-06-14T09:36:24;29.73;63.15
64874;HTU21D;51367;45.204;38.576;2023-06-14T09:38:58;29.78;62.47
64874;HTU21D;51367;45.204;38.576;2023-06-14T09:41:35;29.78;62.59
64874;HTU21D;51367;45.204;38.576;2023-06-14T09:44:05;29.76;62.60
64874;HTU21D;51367;45.204;38.576;2023-06-14T09:46:33;29.66;62.79
64874;HTU21D;51367;45.204;38.576;2023-06-14T09:48:59;29.63;63.08
64874;HTU21D;51367;45.204;38.576;2023-06-14T09:51:26;29.68;62.98
64874;HTU21D;51367;45.204;38.576;2023-06-14T09:53:56;29.66;62.47
64874;HTU21D;51367;45.204;38.576;2023-06-14T09:56:45;29.56;62.21
64874;HTU21D;51367;45.204;38.576;2023-06-14T09:59:12;29.48;62.53
64874;HTU21D;51367;45.204;38.576;2023-06-14T10:01:43;29.38;62.26
64874;HTU21D;51367;45.204;38.576;2023-06-14T10:04:10;29.29;61.84
64874;HTU21D;51367;45.204;38.576;2023-06-14T10:06:39;29.13;62.05
64874;HTU21D;51367;45.204;38.576;2023-06-14T10:09:08;28.95;62.59
64874;HTU21D;51367;45.204;38.576;2023-06-14T10:11:35;28.80;63.18
64874;HTU21D;51367;45.204;38.576;2023-06-14T10:14:03;28.57;63.72
64874;HTU21D;51367;45.204;38.576;2023-06-14T10:19:34;27.99;64.97
64874;HTU21D;51367;45.204;38.576;2023-06-14T10:22:08;27.68;65.62
64874;HTU21D;51367;45.204;38.576;2023-06-14T10:24:41;27.34;66.21
64874;HTU21D;51367;45.204;38.576;2023-06-14T10:27:08;27.01;66.89
64874;HTU21D;51367;45.204;38.576;2023-06-14T10:32:22;26.52;67.55
64874;HTU21D;51367;45.204;38.576;2023-06-14T10:35:15;26.32;67.61
64874;HTU21D;51367;45.204;38.576;2023-06-14T10:37:40;26.13;67.72
64874;HTU21D;51367;45.204;38.576;2023-06-14T10:40:07;25.99;67.73
64874;HTU21D;51367;45.204;38.576;2023-06-14T10:42:34;25.80;67.79
64874;HTU21D;51367;45.204;38.576;2023-06-14T10:45:00;25.60;67.99
64874;HTU21D;51367;45.204;38.576;2023-06-14T10:47:31;25.31;68.25
64874;HTU21D;51367;45.204;38.576;2023-06-14T10:50:10;24.85;68.91
64874;HTU21D;51367;45.204;38.576;2023-06-14T10:52:41;24.27;69.97
64874;HTU21D;51367;45.204;38.576;2023-06-14T10:55:14;23.86;70.92
64874;HTU21D;51367;45.204;38.576;2023-06-14T10:57:52;23.62;71.58
64874;HTU21D;51367;45.204;38.576;2023-06-14T11:00:19;23.52;71.84
64874;HTU21D;51367;45.204;38.576;2023-06-14T11:05:49;23.36;72.29
64874;HTU21D;51367;45.204;38.576;2023-06-14T11:11:06;23.03;73.02
64874;HTU21D;51367;45.204;38.576;2023-06-14T11:13:33;22.90;73.29
64874;HTU21D;51367;45.204;38.576;2023-06-14T11:15:59;22.69;73.41
64874;HTU21D;51367;45.204;38.576;2023-06-14T11:18:25;22.48;73.73
64874;HTU21D;51367;45.204;38.576;2023-06-14T11:20:53;22.36;73.98
64874;HTU21D;51367;45.204;38.576;2023-06-14T11:23:20;22.35;74.09
64874;HTU21D;51367;45.204;38.576;2023-06-14T11:25:50;22.33;74.18
64874;HTU21D;51367;45.204;38.576;2023-06-14T11:28:17;22.35;74.23
64874;HTU21D;51367;45.204;38.576;2023-06-14T11:30:45;22.38;74.31
64874;HTU21D;51367;45.204;38.576;2023-06-14T11:33:17;22.37;74.41
64874;HTU21D;51367;45.204;38.576;2023-06-14T11:35:44;22.29;74.49
64874;HTU21D;51367;45.204;38.576;2023-06-14T11:38:11;22.27;74.71
64874;HTU21D;51367;45.204;38.576;2023-06-14T11:40:38;22.24;74.89
64874;HTU21D;51367;45.204;38.576;2023-06-14T11:43:04;22.23;75.03
64874;HTU21D;51367;45.204;38.576;2023-06-14T11:45:31;22.23;75.15
64874;HTU21D;51367;45.204;38.576;2023-06-14T11:47:58;22.23;75.26
64874;HTU21D;51367;45.204;38.576;2023-06-14T11:50:25;22.26;75.40
64874;HTU21D;51367;45.204;38.576;2023-06-14T11:52:59;22.27;75.71
64874;HTU21D;51367;45.204;38.576;2023-06-14T11:55:29;22.32;75.59
64874;HTU21D;51367;45.204;38.576;2023-06-14T11:57:55;22.36;75.70
64874;HTU21D;51367;45.204;38.576;2023-06-14T12:00:25;22.41;75.79
64874;HTU21D;51367;45.204;38.576;2023-06-14T12:02:53;22.48;75.86
64874;HTU21D;51367;45.204;38.576;2023-06-14T12:05:21;22.54;75.90
64874;HTU21D;51367;45.204;38.576;2023-06-14T12:07:48;22.61;75.94
64874;HTU21D;51367;45.204;38.576;2023-06-14T12:10:16;22.69;75.98
64874;HTU21D;51367;45.204;38.576;2023-06-14T12:12:42;22.77;75.99
64874;HTU21D;51367;45.204;38.576;2023-06-14T12:15:09;22.81;76.09
64874;HTU21D;51367;45.204;38.576;2023-06-14T12:17:38;22.85;76.15
64874;HTU21D;51367;45.204;38.576;2023-06-14T12:22:58;22.81;76.50
64874;HTU21D;51367;45.204;38.576;2023-06-14T12:25:32;22.80;76.81
64874;HTU21D;51367;45.204;38.576;2023-06-14T12:28:08;22.84;77.04
64874;HTU21D;51367;45.204;38.576;2023-06-14T12:30:36;22.90;76.93
64874;HTU21D;51367;45.204;38.576;2023-06-14T12:33:03;22.94;76.98
64874;HTU21D;51367;45.204;38.576;2023-06-14T12:35:30;22.94;76.91
64874;HTU21D;51367;45.204;38.576;2023-06-14T12:37:56;22.94;76.95
64874;HTU21D;51367;45.204;38.576;2023-06-14T12:40:22;22.93;77.08
64874;HTU21D;51367;45.204;38.576;2023-06-14T12:42:48;22.95;77.11
64874;HTU21D;51367;45.204;38.576;2023-06-14T12:45:14;22.96;77.18
64874;HTU21D;51367;45.204;38.576;2023-06-14T12:47:40;22.98;77.21
64874;HTU21D;51367;45.204;38.576;2023-06-14T12:50:06;23.01;77.24
64874;HTU21D;51367;45.204;38.576;2023-06-14T12:52:33;23.02;77.23
64874;HTU21D;51367;45.204;38.576;2023-06-14T12:55:05;23.05;77.31
64874;HTU21D;51367;45.204;38.576;2023-06-14T12:57:32;23.02;77.30
64874;HTU21D;51367;45.204;38.576;2023-06-14T12:59:59;23.05;77.40
64874;HTU21D;51367;45.204;38.576;2023-06-14T13:02:25;23.05;77.47
64874;HTU21D;51367;45.204;38.576;2023-06-14T13:04:52;23.06;77.60
64874;HTU21D;51367;45.204;38.576;2023-06-14T13:07:18;23.06;77.73
64874;HTU21D;51367;45.204;38.576;2023-06-14T13:09:44;23.05;77.81
64874;HTU21D;51367;45.204;38.576;2023-06-14T13:12:10;23.07;77.92
64874;HTU21D;51367;45.204;38.576;2023-06-14T13:14:38;23.09;77.96
64874;HTU21D;51367;45.204;38.576;2023-06-14T13:17:07;23.11;78.00
64874;HTU21D;51367;45.204;38.576;2023-06-14T13:19:33;23.12;78.06
64874;HTU21D;51367;45.204;38.576;2023-06-14T13:21:59;23.12;78.12
64874;HTU21D;51367;45.204;38.576;2023-06-14T13:24:25;23.15;78.21
64874;HTU21D;51367;45.204;38.576;2023-06-14T13:29:36;23.18;78.30
64874;HTU21D;51367;45.204;38.576;2023-06-14T13:32:03;23.22;78.40
64874;HTU21D;51367;45.204;38.576;2023-06-14T13:34:48;23.24;78.43
64874;HTU21D;51367;45.204;38.576;2023-06-14T13:37:14;23.27;78.43
64874;HTU21D;51367;45.204;38.576;2023-06-14T13:39:40;23.30;78.47
64874;HTU21D;51367;45.204;38.576;2023-06-14T13:42:06;23.31;78.55
64874;HTU21D;51367;45.204;38.576;2023-06-14T13:44:32;23.35;78.63
64874;HTU21D;51367;45.204;38.576;2023-06-14T13:46:58;23.38;78.72
64874;HTU21D;51367;45.204;38.576;2023-06-14T13:49:24;23.41;78.78
64874;HTU21D;51367;45.204;38.576;2023-06-14T13:51:50;23.47;78.84
64874;HTU21D;51367;45.204;38.576;2023-06-14T13:54:19;23.55;78.89
64874;HTU21D;51367;45.204;38.576;2023-06-14T13:56:46;23.62;78.85
64874;HTU21D;51367;45.204;38.576;2023-06-14T13:59:12;23.71;78.85
64874;HTU21D;51367;45.204;38.576;2023-06-14T14:01:38;23.83;78.80
64874;HTU21D;51367;45.204;38.576;2023-06-14T14:04:04;23.92;78.79
64874;HTU21D;51367;45.204;38.576;2023-06-14T14:06:30;24.02;78.82
64874;HTU21D;51367;45.204;38.576;2023-06-14T14:08:57;24.10;78.81
64874;HTU21D;51367;45.204;38.576;2023-06-14T14:11:23;24.20;78.75
64874;HTU21D;51367;45.204;38.576;2023-06-14T14:13:49;24.33;78.66
64874;HTU21D;51367;45.204;38.576;2023-06-14T14:16:15;24.45;78.56
64874;HTU21D;51367;45.204;38.576;2023-06-14T14:18:41;24.57;78.41
64874;HTU21D;51367;45.204;38.576;2023-06-14T14:21:07;24.65;78.33
64874;HTU21D;51367;45.204;38.576;2023-06-14T14:23:33;24.76;78.30
64874;HTU21D;51367;45.204;38.576;2023-06-14T14:25:59;24.88;78.19
64874;HTU21D;51367;45.204;38.576;2023-06-14T14:28:29;25.00;78.17
64874;HTU21D;51367;45.204;38.576;2023-06-14T14:30:55;25.04;77.98
64874;HTU21D;51367;45.204;38.576;2023-06-14T14:33:21;25.06;77.95
64874;HTU21D;51367;45.204;38.576;2023-06-14T14:35:46;25.10;78.01
64874;HTU21D;51367;45.204;38.576;2023-06-14T14:38:14;25.17;78.03
64874;HTU21D;51367;45.204;38.576;2023-06-14T14:40:42;25.23;77.93
64874;HTU21D;51367;45.204;38.576;2023-06-14T14:43:08;25.31;77.81
64874;HTU21D;51367;45.204;38.576;2023-06-14T14:45:34;25.37;77.66
64874;HTU21D;51367;45.204;38.576;2023-06-14T14:48:00;25.42;77.54
64874;HTU21D;51367;45.204;38.576;2023-06-14T14:50:26;25.49;77.47
64874;HTU21D;51367;45.204;38.576;2023-06-14T14:52:52;25.52;77.31
64874;HTU21D;51367;45.204;38.576;2023-06-14T14:55:18;25.54;77.30
64874;HTU21D;51367;45.204;38.576;2023-06-14T14:57:45;25.58;77.20
64874;HTU21D;51367;45.204;38.576;2023-06-14T15:00:11;25.63;77.11
64874;HTU21D;51367;45.204;38.576;2023-06-14T15:02:37;25.68;76.91
64874;HTU21D;51367;45.204;38.576;2023-06-14T15:05:03;25.68;76.66
64874;HTU21D;51367;45.204;38.576;2023-06-14T15:07:30;25.65;76.52
64874;HTU21D;51367;45.204;38.576;2023-06-14T15:10:00;25.61;76.49
64874;HTU21D;51367;45.204;38.576;2023-06-14T15:12:26;25.60;76.48
64874;HTU21D;51367;45.204;38.576;2023-06-14T15:14:53;25.61;76.42
64874;HTU21D;51367;45.204;38.576;2023-06-14T15:17:19;25.62;76.31
64874;HTU21D;51367;45.204;38.576;2023-06-14T15:19:47;25.59;76.32
64874;HTU21D;51367;45.204;38.576;2023-06-14T15:22:14;25.58;76.33
64874;HTU21D;51367;45.204;38.576;2023-06-14T15:24:43;25.59;76.29
64874;HTU21D;51367;45.204;38.576;2023-06-14T15:29:55;25.57;76.00
64874;HTU21D;51367;45.204;38.576;2023-06-14T15:32:21;25.51;76.06
64874;HTU21D;51367;45.204;38.576;2023-06-14T15:34:47;25.46;76.08